sensor_id;sensor_type;location;lat;lon;timestamp;temperature;humidity
21928;DHT22;11128;51.096;17.190;2024-01-15T00:01:43;1.70;1.00
21928;DHT22;11128;51.096;17.190;2024-01-15T00:06:45;1.50;1.00
21928;DHT22;11128;51.096;17.190;2024-01-15T00:11:46;1.50;1.00
21928;DHT22;11128;51.096;17.190;2024-01-15T00:16:47;1.50;99.90
21928;DHT22;11128;51.096;17.190;2024-01-15T00:21:51;1.50;99.90
21928;DHT22;11128;51.096;17.190;2024-01-15T00:26:52;1.50;1.00
21928;DHT22;11128;51.096;17.190;2024-01-15T00:31:54;1.50;1.00
21928;DHT22;11128;51.096;17.190;2024-01-15T00:36:55;1.50;1.00
21928;DHT22;11128;51.096;17.190;2024-01-15T00:41:56;2.70;1.00
21928;DHT22;11128;51.096;17.190;2024-01-15T00:46:58;1.50;99.90
21928;DHT22;11128;51.096;17.190;2024-01-15T00:51:59;1.50;99.90
21928;DHT22;11128;51.096;17.190;2024-01-15T00:57:00;1.40;99.90
21928;DHT22;11128;51.096;17.190;2024-01-15T01:02:01;2.40;99.90
21928;DHT22;11128;51.096;17.190;2024-01-15T01:07:03;1.40;99.90
21928;DHT22;11128;51.096;17.190;2024-01-15T01:12:05;1.40;99.90
21928;DHT22;11128;51.096;17.190;2024-01-15T01:17:06;1.40;99.90
21928;DHT22;11128;51.096;17.190;2024-01-15T01:22:07;1.40;15.70
21928;DHT22;11128;51.096;17.190;2024-01-15T01:27:08;1.40;1.00
21928;DHT22;11128;51.096;17.190;2024-01-15T01:32:09;1.40;1.00
21928;DHT22;11128;51.096;17.190;2024-01-15T01:37:11;1.40;1.00
21928;DHT22;11128;51.096;17.190;2024-01-15T01:42:15;1.40;1.00
21928;DHT22;11128;51.096;17.190;2024-01-15T01:47:16;1.40;1.00
21928;DHT22;11128;51.096;17.190;2024-01-15T01:52:17;1.40;1.00
21928;DHT22;11128;51.096;17.190;2024-01-15T01:57:19;1.40;1.00
21928;DHT22;11128;51.096;17.190;2024-01-15T02:02:24;1.40;1.00
21928;DHT22;11128;51.096;17.190;2024-01-15T02:07:25;1.40;1.00
21928;DHT22;11128;51.096;17.190;2024-01-15T02:12:26;1.40;1.00
21928;DHT22;11128;51.096;17.190;2024-01-15T02:17:27;2.20;1.00
21928;DHT22;11128;51.096;17.190;2024-01-15T02:22:29;-0.60;1.00
21928;DHT22;11128;51.096;17.190;2024-01-15T02:27:30;1.40;1.00
21928;DHT22;11128;51.096;17.190;2024-01-15T02:32:31;1.40;1.00
21928;DHT22;11128;51.096;17.190;2024-01-15T02:37:32;1.30;1.00
21928;DHT22;11128;51.096;17.190;2024-01-15T02:42:34;1.20;22.60
21928;DHT22;11128;51.096;17.190;2024-01-15T02:47:35;1.20;12.00
21928;DHT22;11128;51.096;17.190;2024-01-15T02:52:36;2.00;1.00
21928;DHT22;11128;51.096;17.190;2024-01-15T02:57:37;1.20;99.90
21928;DHT22;11128;51.096;17.190;2024-01-15T03:02:39;1.20;96.10
21928;DHT22;11128;51.096;17.190;2024-01-15T03:07:41;1.10;1.00
21928;DHT22;11128;51.096;17.190;2024-01-15T03:12:42;1.90;99.90
21928;DHT22;11128;51.096;17.190;2024-01-15T03:17:43;1.10;99.90
21928;DHT22;11128;51.096;17.190;2024-01-15T03:22:44;1.10;1.00
21928;DHT22;11128;51.096;17.190;2024-01-15T03:27:46;1.10;1.00
21928;DHT22;11128;51.096;17.190;2024-01-15T03:32:47;1.80;99.90
21928;DHT22;11128;51.096;17.190;2024-01-15T03:37:48;2.20;99.90
21928;DHT22;11128;51.096;17.190;2024-01-15T03:42:49;1.20;99.90
21928;DHT22;11128;51.096;17.190;2024-01-15T03:47:51;1.20;99.90
21928;DHT22;11128;51.096;17.190;2024-01-15T03:52:52;1.20;99.90
21928;DHT22;11128;51.096;17.190;2024-01-15T03:57:53;1.30;1.00
21928;DHT22;11128;51.096;17.190;2024-01-15T04:02:55;1.30;64.00
21928;DHT22;11128;51.096;17.190;2024-01-15T04:07:56;1.30;1.00
21928;DHT22;11128;51.096;17.190;2024-01-15T04:12:57;1.60;1.00
21928;DHT22;11128;51.096;17.190;2024-01-15T04:18:01;1.30;99.90
21928;DHT22;11128;51.096;17.190;2024-01-15T04:23:03;1.30;99.90
21928;DHT22;11128;51.096;17.190;2024-01-15T04:28:04;1.40;99.90
21928;DHT22;11128;51.096;17.190;2024-01-15T04:33:06;1.30;99.90
21928;DHT22;11128;51.096;17.190;2024-01-15T04:38:07;1.40;99.90
21928;DHT22;11128;51.096;17.190;2024-01-15T04:43:08;1.30;99.90
21928;DHT22;11128;51.096;17.190;2024-01-15T04:48:09;2.30;99.90
21928;DHT22;11128;51.096;17.190;2024-01-15T04:53:11;1.30;99.90
21928;DHT22;11128;51.096;17.190;2024-01-15T04:58:12;1.30;99.90
21928;DHT22;11128;51.096;17.190;2024-01-15T05:03:13;1.80;99.90
21928;DHT22;11128;51.096;17.190;2024-01-15T05:08:14;1.30;77.40
21928;DHT22;11128;51.096;17.190;2024-01-15T05:13:16;1.30;94.80
21928;DHT22;11128;51.096;17.190;2024-01-15T05:18:17;1.30;48.20
21928;DHT22;11128;51.096;17.190;2024-01-15T05:23:19;2.50;19.00
21928;DHT22;11128;51.096;17.190;2024-01-15T05:28:20;1.30;1.00
21928;DHT22;11128;51.096;17.190;2024-01-15T05:33:25;1.70;99.90
21928;DHT22;11128;51.096;17.190;2024-01-15T05:38:27;1.40;99.90
21928;DHT22;11128;51.096;17.190;2024-01-15T05:43:28;1.40;1.00
21928;DHT22;11128;51.096;17.190;2024-01-15T05:48:30;1.30;19.90
21928;DHT22;11128;51.096;17.190;2024-01-15T05:53:31;1.20;1.00
21928;DHT22;11128;51.096;17.190;2024-01-15T05:58:32;1.20;1.00
21928;DHT22;11128;51.096;17.190;2024-01-15T06:03:33;1.10;1.00
21928;DHT22;11128;51.096;17.190;2024-01-15T06:08:35;1.10;1.00
21928;DHT22;11128;51.096;17.190;2024-01-15T06:13:36;1.10;99.90
21928;DHT22;11128;51.096;17.190;2024-01-15T06:18:37;1.10;99.90
21928;DHT22;11128;51.096;17.190;2024-01-15T06:23:39;1.10;69.40
21928;DHT22;11128;51.096;17.190;2024-01-15T06:28:41;1.10;1.00
21928;DHT22;11128;51.096;17.190;2024-01-15T06:33:42;1.00;1.00
21928;DHT22;11128;51.096;17.190;2024-01-15T06:38:44;1.60;99.90
21928;DHT22;11128;51.096;17.190;2024-01-15T06:43:46;1.00;1.00
21928;DHT22;11128;51.096;17.190;2024-01-15T06:48:47;1.00;1.00
21928;DHT22;11128;51.096;17.190;2024-01-15T06:53:48;1.00;1.00
21928;DHT22;11128;51.096;17.190;2024-01-15T06:58:49;1.90;1.00
21928;DHT22;11128;51.096;17.190;2024-01-15T07:03:50;1.00;1.00
21928;DHT22;11128;51.096;17.190;2024-01-15T07:08:52;1.80;99.90
21928;DHT22;11128;51.096;17.190;2024-01-15T07:13:53;1.00;99.90
21928;DHT22;11128;51.096;17.190;2024-01-15T07:18:55;1.10;54.20
21928;DHT22;11128;51.096;17.190;2024-01-15T07:23:56;1.00;1.00
21928;DHT22;11128;51.096;17.190;2024-01-15T07:28:57;1.00;1.00
21928;DHT22;11128;51.096;17.190;2024-01-15T07:33:58;2.90;1.00
21928;DHT22;11128;51.096;17.190;2024-01-15T07:39:01;1.00;1.00
21928;DHT22;11128;51.096;17.190;2024-01-15T07:44:03;1.00;1.00
21928;DHT22;11128;51.096;17.190;2024-01-15T07:49:05;1.00;1.00
21928;DHT22;11128;51.096;17.190;2024-01-15T07:54:06;1.10;99.90
21928;DHT22;11128;51.096;17.190;2024-01-15T07:59:08;1.10;1.00
21928;DHT22;11128;51.096;17.190;2024-01-15T08:04:10;1.20;1.00
21928;DHT22;11128;51.096;17.190;2024-01-15T08:09:14;1.30;99.90
21928;DHT22;11128;51.096;17.190;2024-01-15T08:14:15;1.40;99.90
21928;DHT22;11128;51.096;17.190;2024-01-15T08:19:17;1.50;1.00
21928;DHT22;11128;51.096;17.190;2024-01-15T08:24:18;1.50;1.00
21928;DHT22;11128;51.096;17.190;2024-01-15T08:29:20;1.50;1.00
21928;DHT22;11128;51.096;17.190;2024-01-15T08:34:22;1.90;1.00
21928;DHT22;11128;51.096;17.190;2024-01-15T08:39:24;1.70;1.00
21928;DHT22;11128;51.096;17.190;2024-01-15T08:44:25;1.60;1.00
21928;DHT22;11128;51.096;17.190;2024-01-15T08:49:27;2.60;1.00
21928;DHT22;11128;51.096;17.190;2024-01-15T08:54:28;1.60;1.00
21928;DHT22;11128;51.096;17.190;2024-01-15T08:59:30;1.70;1.00
21928;DHT22;11128;51.096;17.190;2024-01-15T09:04:32;1.70;1.00
21928;DHT22;11128;51.096;17.190;2024-01-15T09:09:34;2.50;1.00
21928;DHT22;11128;51.096;17.190;2024-01-15T09:14:37;1.80;1.00
21928;DHT22;11128;51.096;17.190;2024-01-15T09:19:39;1.90;1.00
21928;DHT22;11128;51.096;17.190;2024-01-15T09:24:41;1.90;1.00
21928;DHT22;11128;51.096;17.190;2024-01-15T09:29:43;1.90;1.00
21928;DHT22;11128;51.096;17.190;2024-01-15T09:34:46;1.90;99.90
21928;DHT22;11128;51.096;17.190;2024-01-15T09:39:49;2.30;99.90
21928;DHT22;11128;51.096;17.190;2024-01-15T09:44:52;2.00;99.90
21928;DHT22;11128;51.096;17.190;2024-01-15T09:49:54;2.00;99.90
21928;DHT22;11128;51.096;17.190;2024-01-15T09:54:58;2.10;99.90
21928;DHT22;11128;51.096;17.190;2024-01-15T10:00:02;2.00;99.90
21928;DHT22;11128;51.096;17.190;2024-01-15T10:05:05;2.10;99.90
21928;DHT22;11128;51.096;17.190;2024-01-15T10:10:07;2.10;99.90
21928;DHT22;11128;51.096;17.190;2024-01-15T10:15:12;2.10;99.90
21928;DHT22;11128;51.096;17.190;2024-01-15T10:20:14;2.50;99.90
21928;DHT22;11128;51.096;17.190;2024-01-15T10:25:15;2.10;99.90
21928;DHT22;11128;51.096;17.190;2024-01-15T10:30:17;2.20;99.90
21928;DHT22;11128;51.096;17.190;2024-01-15T10:35:21;2.20;99.90
21928;DHT22;11128;51.096;17.190;2024-01-15T10:40:23;2.20;99.90
21928;DHT22;11128;51.096;17.190;2024-01-15T10:45:25;3.00;99.90
21928;DHT22;11128;51.096;17.190;2024-01-15T10:50:26;2.30;99.90
21928;DHT22;11128;51.096;17.190;2024-01-15T10:55:28;2.40;99.90
21928;DHT22;11128;51.096;17.190;2024-01-15T11:00:30;3.30;99.90
21928;DHT22;11128;51.096;17.190;2024-01-15T11:05:42;3.10;99.90
21928;DHT22;11128;51.096;17.190;2024-01-15T11:10:46;3.00;99.90
21928;DHT22;11128;51.096;17.190;2024-01-15T11:15:57;3.10;99.90
21928;DHT22;11128;51.096;17.190;2024-01-15T11:26:35;4.10;99.90
21928;DHT22;11128;51.096;17.190;2024-01-15T11:41:47;5.10;99.90
21928;DHT22;11128;51.096;17.190;2024-01-15T11:47:01;4.70;99.90
21928;DHT22;11128;51.096;17.190;2024-01-15T11:52:05;4.50;99.90
21928;DHT22;11128;51.096;17.190;2024-01-15T11:57:12;4.80;99.90
21928;DHT22;11128;51.096;17.190;2024-01-15T12:02:18;4.70;99.90
21928;DHT22;11128;51.096;17.190;2024-01-15T12:07:20;4.80;99.90
21928;DHT22;11128;51.096;17.190;2024-01-15T12:12:27;4.90;99.90
21928;DHT22;11128;51.096;17.190;2024-01-15T12:17:30;4.80;99.90
21928;DHT22;11128;51.096;17.190;2024-01-15T12:22:32;4.70;99.90
21928;DHT22;11128;51.096;17.190;2024-01-15T12:27:33;4.70;99.90
21928;DHT22;11128;51.096;17.190;2024-01-15T12:32:35;3.90;99.90
21928;DHT22;11128;51.096;17.190;2024-01-15T12:37:39;3.60;99.90
21928;DHT22;11128;51.096;17.190;2024-01-15T12:42:41;3.60;99.90
21928;DHT22;11128;51.096;17.190;2024-01-15T12:47:42;3.50;99.90
21928;DHT22;11128;51.096;17.190;2024-01-15T12:52:44;3.40;99.90
21928;DHT22;11128;51.096;17.190;2024-01-15T12:57:45;3.80;99.90
21928;DHT22;11128;51.096;17.190;2024-01-15T13:02:47;3.30;99.90
21928;DHT22;11128;51.096;17.190;2024-01-15T13:07:49;3.20;99.90
21928;DHT22;11128;51.096;17.190;2024-01-15T13:12:50;3.80;99.90
21928;DHT22;11128;51.096;17.190;2024-01-15T13:17:52;3.20;99.90
21928;DHT22;11128;51.096;17.190;2024-01-15T13:22:53;3.10;99.90
21928;DHT22;11128;51.096;17.190;2024-01-15T13:27:54;3.00;99.90
21928;DHT22;11128;51.096;17.190;2024-01-15T13:32:56;3.00;99.90
21928;DHT22;11128;51.096;17.190;2024-01-15T13:37:58;3.10;99.90
21928;DHT22;11128;51.096;17.190;2024-01-15T13:43:00;2.90;99.90
21928;DHT22;11128;51.096;17.190;2024-01-15T13:48:01;2.90;99.90
21928;DHT22;11128;51.096;17.190;2024-01-15T13:53:06;3.30;99.90
21928;DHT22;11128;51.096;17.190;2024-01-15T13:58:10;2.80;99.90
21928;DHT22;11128;51.096;17.190;2024-01-15T14:03:12;2.80;99.90
21928;DHT22;11128;51.096;17.190;2024-01-15T14:08:13;4.30;99.90
21928;DHT22;11128;51.096;17.190;2024-01-15T14:13:15;2.80;99.90
21928;DHT22;11128;51.096;17.190;2024-01-15T14:18:17;2.80;99.90
21928;DHT22;11128;51.096;17.190;2024-01-15T14:23:19;2.70;99.90
21928;DHT22;11128;51.096;17.190;2024-01-15T14:28:40;3.80;99.90
21928;DHT22;11128;51.096;17.190;2024-01-15T14:33:42;2.70;99.90
21928;DHT22;11128;51.096;17.190;2024-01-15T14:38:49;2.60;99.90
21928;DHT22;11128;51.096;17.190;2024-01-15T14:43:50;2.80;99.90
21928;DHT22;11128;51.096;17.190;2024-01-15T14:49:10;2.50;99.90
21928;DHT22;11128;51.096;17.190;2024-01-15T14:54:12;2.40;99.90
21928;DHT22;11128;51.096;17.190;2024-01-15T14:59:14;2.30;99.90
21928;DHT22;11128;51.096;17.190;2024-01-15T15:04:17;2.20;99.90
21928;DHT22;11128;51.096;17.190;2024-01-15T15:09:19;2.20;99.90
21928;DHT22;11128;51.096;17.190;2024-01-15T15:14:20;2.20;99.90
21928;DHT22;11128;51.096;17.190;2024-01-15T15:19:23;2.20;99.90
21928;DHT22;11128;51.096;17.190;2024-01-15T15:24:25;2.10;99.90
21928;DHT22;11128;51.096;17.190;2024-01-15T15:29:27;2.10;99.90
21928;DHT22;11128;51.096;17.190;2024-01-15T15:34:30;3.30;99.90
21928;DHT22;11128;51.096;17.190;2024-01-15T15:39:31;2.00;99.90
21928;DHT22;11128;51.096;17.190;2024-01-15T15:44:33;2.00;99.90
21928;DHT22;11128;51.096;17.190;2024-01-15T15:49:35;2.30;99.90
21928;DHT22;11128;51.096;17.190;2024-01-15T15:54:37;2.00;99.90
21928;DHT22;11128;51.096;17.190;2024-01-15T15:59:38;2.00;99.90
21928;DHT22;11128;51.096;17.190;2024-01-15T16:04:40;2.00;99.90
21928;DHT22;11128;51.096;17.190;2024-01-15T16:09:42;2.00;99.90
21928;DHT22;11128;51.096;17.190;2024-01-15T16:14:44;2.00;99.90
21928;DHT22;11128;51.096;17.190;2024-01-15T16:19:46;1.90;99.90
21928;DHT22;11128;51.096;17.190;2024-01-15T16:24:48;2.10;99.90
21928;DHT22;11128;51.096;17.190;2024-01-15T16:29:49;1.80;99.90
21928;DHT22;11128;51.096;17.190;2024-01-15T16:34:51;1.70;1.00
21928;DHT22;11128;51.096;17.190;2024-01-15T16:39:53;1.60;1.00
21928;DHT22;11128;51.096;17.190;2024-01-15T16:44:54;1.60;1.00
21928;DHT22;11128;51.096;17.190;2024-01-15T16:49:56;1.60;1.00
21928;DHT22;11128;51.096;17.190;2024-01-15T16:54:57;1.60;1.00
21928;DHT22;11128;51.096;17.190;2024-01-15T16:59:59;2.70;1.00
21928;DHT22;11128;51.096;17.190;2024-01-15T17:05:00;1.50;1.00
21928;DHT22;11128;51.096;17.190;2024-01-15T17:10:03;1.50;1.00
21928;DHT22;11128;51.096;17.190;2024-01-15T17:15:05;1.50;1.00
21928;DHT22;11128;51.096;17.190;2024-01-15T17:20:07;1.50;1.00
21928;DHT22;11128;51.096;17.190;2024-01-15T17:25:10;1.40;99.90
21928;DHT22;11128;51.096;17.190;2024-01-15T17:30:11;1.40;30.40
21928;DHT22;11128;51.096;17.190;2024-01-15T17:35:13;1.40;48.60
21928;DHT22;11128;51.096;17.190;2024-01-15T17:40:14;1.90;48.30
21928;DHT22;11128;51.096;17.190;2024-01-15T17:45:16;1.40;9.70
21928;DHT22;11128;51.096;17.190;2024-01-15T17:50:19;1.40;99.90
21928;DHT22;11128;51.096;17.190;2024-01-15T17:55:21;1.40;1.00
21928;DHT22;11128;51.096;17.190;2024-01-15T18:00:24;1.50;1.00
21928;DHT22;11128;51.096;17.190;2024-01-15T18:05:26;1.60;1.00
21928;DHT22;11128;51.096;17.190;2024-01-15T18:10:27;1.60;1.00
21928;DHT22;11128;51.096;17.190;2024-01-15T18:15:28;1.60;1.00
21928;DHT22;11128;51.096;17.190;2024-01-15T18:20:30;1.70;1.00
21928;DHT22;11128;51.096;17.190;2024-01-15T18:25:32;2.40;1.00
21928;DHT22;11128;51.096;17.190;2024-01-15T18:30:34;2.50;1.00
21928;DHT22;11128;51.096;17.190;2024-01-15T18:35:36;1.80;1.00
21928;DHT22;11128;51.096;17.190;2024-01-15T18:40:40;2.60;1.00
21928;DHT22;11128;51.096;17.190;2024-01-15T18:45:41;1.80;1.00
21928;DHT22;11128;51.096;17.190;2024-01-15T18:50:43;1.70;1.00
21928;DHT22;11128;51.096;17.190;2024-01-15T18:55:45;1.70;1.00
21928;DHT22;11128;51.096;17.190;2024-01-15T19:00:46;1.70;1.00
21928;DHT22;11128;51.096;17.190;2024-01-15T19:05:48;1.70;1.00
21928;DHT22;11128;51.096;17.190;2024-01-15T19:10:50;1.60;1.00
21928;DHT22;11128;51.096;17.190;2024-01-15T19:15:51;1.60;1.00
21928;DHT22;11128;51.096;17.190;2024-01-15T19:20:53;2.70;1.00
21928;DHT22;11128;51.096;17.190;2024-01-15T19:25:55;1.60;1.00
21928;DHT22;11128;51.096;17.190;2024-01-15T19:30:57;1.60;1.00
21928;DHT22;11128;51.096;17.190;2024-01-15T19:36:00;1.60;1.00
21928;DHT22;11128;51.096;17.190;2024-01-15T19:41:01;1.50;1.00
21928;DHT22;11128;51.096;17.190;2024-01-15T19:46:04;1.60;1.00
21928;DHT22;11128;51.096;17.190;2024-01-15T19:51:06;2.80;1.00
21928;DHT22;11128;51.096;17.190;2024-01-15T19:56:08;1.60;1.00
21928;DHT22;11128;51.096;17.190;2024-01-15T20:01:10;1.60;1.00
21928;DHT22;11128;51.096;17.190;2024-01-15T20:06:12;2.20;1.00
21928;DHT22;11128;51.096;17.190;2024-01-15T20:11:15;1.60;1.00
21928;DHT22;11128;51.096;17.190;2024-01-15T20:16:18;1.60;1.00
21928;DHT22;11128;51.096;17.190;2024-01-15T20:21:20;1.60;1.00
21928;DHT22;11128;51.096;17.190;2024-01-15T20:26:21;1.60;1.00
21928;DHT22;11128;51.096;17.190;2024-01-15T20:31:23;2.90;1.00
21928;DHT22;11128;51.096;17.190;2024-01-15T20:36:24;1.50;41.50
21928;DHT22;11128;51.096;17.190;2024-01-15T20:41:28;1.50;99.90
21928;DHT22;11128;51.096;17.190;2024-01-15T20:46:30;1.50;99.90
21928;DHT22;11128;51.096;17.190;2024-01-15T20:51:32;1.50;99.90
21928;DHT22;11128;51.096;17.190;2024-01-15T20:56:35;1.80;99.90
21928;DHT22;11128;51.096;17.190;2024-01-15T21:01:37;1.50;99.90
21928;DHT22;11128;51.096;17.190;2024-01-15T21:06:39;1.50;99.90
21928;DHT22;11128;51.096;17.190;2024-01-15T21:11:41;2.50;99.90
21928;DHT22;11128;51.096;17.190;2024-01-15T21:16:42;1.50;99.90
21928;DHT22;11128;51.096;17.190;2024-01-15T21:21:44;1.50;99.90
21928;DHT22;11128;51.096;17.190;2024-01-15T21:26:49;1.50;99.90
21928;DHT22;11128;51.096;17.190;2024-01-15T21:31:50;3.10;99.90
21928;DHT22;11128;51.096;17.190;2024-01-15T21:36:52;1.50;99.90
21928;DHT22;11128;51.096;17.190;2024-01-15T21:41:54;1.40;99.90
21928;DHT22;11128;51.096;17.190;2024-01-15T21:46:55;1.40;99.90
21928;DHT22;11128;51.096;17.190;2024-01-15T21:51:57;2.00;99.90
21928;DHT22;11128;51.096;17.190;2024-01-15T21:56:59;1.40;99.90
21928;DHT22;11128;51.096;17.190;2024-01-15T22:02:00;1.50;99.90
21928;DHT22;11128;51.096;17.190;2024-01-15T22:07:05;1.50;99.90
21928;DHT22;11128;51.096;17.190;2024-01-15T22:12:07;2.40;99.90
21928;DHT22;11128;51.096;17.190;2024-01-15T22:17:09;1.50;99.90
21928;DHT22;11128;51.096;17.190;2024-01-15T22:22:10;1.50;67.10
21928;DHT22;11128;51.096;17.190;2024-01-15T22:27:12;1.50;51.80
21928;DHT22;11128;51.096;17.190;2024-01-15T22:32:14;1.50;50.80
21928;DHT22;11128;51.096;17.190;2024-01-15T22:37:15;2.40;23.30
21928;DHT22;11128;51.096;17.190;2024-01-15T22:42:17;2.70;47.90
21928;DHT22;11128;51.096;17.190;2024-01-15T22:47:19;1.40;43.40
21928;DHT22;11128;51.096;17.190;2024-01-15T22:52:21;1.40;71.20
21928;DHT22;11128;51.096;17.190;2024-01-15T22:57:23;2.10;91.30
21928;DHT22;11128;51.096;17.190;2024-01-15T23:02:25;1.40;99.90
21928;DHT22;11128;51.096;17.190;2024-01-15T23:07:26;1.40;99.90
21928;DHT22;11128;51.096;17.190;2024-01-15T23:12:28;1.80;99.90
21928;DHT22;11128;51.096;17.190;2024-01-15T23:17:30;1.40;99.90
21928;DHT22;11128;51.096;17.190;2024-01-15T23:22:32;2.40;99.90
21928;DHT22;11128;51.096;17.190;2024-01-15T23:27:37;1.40;99.90
21928;DHT22;11128;51.096;17.190;2024-01-15T23:32:39;1.60;99.90
21928;DHT22;11128;51.096;17.190;2024-01-15T23:37:40;1.40;1.00
21928;DHT22;11128;51.096;17.190;2024-01-15T23:42:42;2.00;1.00
21928;DHT22;11128;51.096;17.190;2024-01-15T23:47:43;1.40;27.60
21928;DHT22;11128;51.096;17.190;2024-01-15T23:52:45;2.60;1.00
21928;DHT22;11128;51.096;17.190;2024-01-15T23:57:46;1.20;1.00
